sensor_id;sensor_type;location;lat;lon;timestamp;P1;durP1;ratioP1;P2;durP2;ratioP2
75687;SDS011;64300;45.034;38.910;2023-04-12T00:01:34;42.10;;;19.98;;
75687;SDS011;64300;45.034;38.910;2023-04-12T00:04:00;41.55;;;20.10;;
75687;SDS011;64300;45.034;38.910;2023-04-12T00:06:27;45.10;;;18.70;;
75687;SDS011;64300;45.034;38.910;2023-04-12T00:08:57;45.35;;;20.35;;
75687;SDS011;64300;45.034;38.910;2023-04-12T00:11:23;41.60;;;19.50;;
75687;SDS011;64300;45.034;38.910;2023-04-12T00:13:48;41.85;;;18.40;;
75687;SDS011;64300;45.034;38.910;2023-04-12T00:16:14;38.88;;;18.38;;
75687;SDS011;64300;45.034;38.910;2023-04-12T00:18:40;43.20;;;18.65;;
75687;SDS011;64300;45.034;38.910;2023-04-12T00:21:07;42.80;;;19.50;;
75687;SDS011;64300;45.034;38.910;2023-04-12T00:23:32;43.33;;;19.58;;
75687;SDS011;64300;45.034;38.910;2023-04-12T00:25:58;48.55;;;20.30;;
75687;SDS011;64300;45.034;38.910;2023-04-12T00:28:24;39.63;;;19.27;;
75687;SDS011;64300;45.034;38.910;2023-04-12T00:30:50;42.45;;;20.13;;
75687;SDS011;64300;45.034;38.910;2023-04-12T00:33:15;44.53;;;18.77;;
75687;SDS011;64300;45.034;38.910;2023-04-12T00:35:41;39.75;;;18.33;;
75687;SDS011;64300;45.034;38.910;2023-04-12T00:38:07;45.63;;;19.60;;
75687;SDS011;64300;45.034;38.910;2023-04-12T00:40:39;37.63;;;18.23;;
75687;SDS011;64300;45.034;38.910;2023-04-12T00:43:05;37.88;;;18.80;;
75687;SDS011;64300;45.034;38.910;2023-04-12T00:45:31;37.45;;;18.33;;
75687;SDS011;64300;45.034;38.910;2023-04-12T00:47:56;41.30;;;19.75;;
75687;SDS011;64300;45.034;38.910;2023-04-12T00:50:22;40.33;;;18.58;;
75687;SDS011;64300;45.034;38.910;2023-04-12T00:52:48;40.97;;;18.77;;
75687;SDS011;64300;45.034;38.910;2023-04-12T00:55:16;41.72;;;19.13;;
75687;SDS011;64300;45.034;38.910;2023-04-12T00:57:42;41.53;;;19.27;;
75687;SDS011;64300;45.034;38.910;2023-04-12T01:00:08;42.55;;;19.65;;
75687;SDS011;64300;45.034;38.910;2023-04-12T01:02:39;45.00;;;20.05;;
75687;SDS011;64300;45.034;38.910;2023-04-12T01:05:05;44.38;;;18.95;;
75687;SDS011;64300;45.034;38.910;2023-04-12T01:10:23;43.25;;;19.33;;
75687;SDS011;64300;45.034;38.910;2023-04-12T01:15:39;37.90;;;18.10;;
75687;SDS011;64300;45.034;38.910;2023-04-12T01:18:15;38.72;;;18.52;;
75687;SDS011;64300;45.034;38.910;2023-04-12T01:20:49;41.30;;;20.08;;
75687;SDS011;64300;45.034;38.910;2023-04-12T01:25:50;39.47;;;19.70;;
75687;SDS011;64300;45.034;38.910;2023-04-12T01:28:22;38.15;;;19.50;;
75687;SDS011;64300;45.034;38.910;2023-04-12T01:30:51;41.90;;;19.45;;
75687;SDS011;64300;45.034;38.910;2023-04-12T01:33:20;38.05;;;18.42;;
75687;SDS011;64300;45.034;38.910;2023-04-12T01:35:46;45.92;;;19.58;;
75687;SDS011;64300;45.034;38.910;2023-04-12T01:38:13;46.63;;;20.33;;
75687;SDS011;64300;45.034;38.910;2023-04-12T01:40:38;39.40;;;18.85;;
75687;SDS011;64300;45.034;38.910;2023-04-12T01:43:08;43.08;;;18.30;;
75687;SDS011;64300;45.034;38.910;2023-04-12T01:45:33;37.20;;;17.83;;
75687;SDS011;64300;45.034;38.910;2023-04-12T01:48:06;42.75;;;18.38;;
75687;SDS011;64300;45.034;38.910;2023-04-12T01:55:33;39.97;;;19.45;;
75687;SDS011;64300;45.034;38.910;2023-04-12T01:58:01;39.80;;;18.70;;
75687;SDS011;64300;45.034;38.910;2023-04-12T02:00:27;37.67;;;18.27;;
75687;SDS011;64300;45.034;38.910;2023-04-12T02:02:53;46.75;;;19.38;;
75687;SDS011;64300;45.034;38.910;2023-04-12T02:05:19;39.08;;;18.52;;
75687;SDS011;64300;45.034;38.910;2023-04-12T02:07:45;42.22;;;18.98;;
75687;SDS011;64300;45.034;38.910;2023-04-12T02:10:12;40.53;;;18.48;;
75687;SDS011;64300;45.034;38.910;2023-04-12T02:12:38;44.40;;;20.15;;
75687;SDS011;64300;45.034;38.910;2023-04-12T02:15:03;41.55;;;19.48;;
75687;SDS011;64300;45.034;38.910;2023-04-12T02:17:32;43.70;;;19.10;;
75687;SDS011;64300;45.034;38.910;2023-04-12T02:19:59;42.05;;;19.92;;
75687;SDS011;64300;45.034;38.910;2023-04-12T02:22:24;45.60;;;20.08;;
75687;SDS011;64300;45.034;38.910;2023-04-12T02:24:50;42.00;;;20.02;;
75687;SDS011;64300;45.034;38.910;2023-04-12T02:27:16;46.08;;;20.90;;
75687;SDS011;64300;45.034;38.910;2023-04-12T02:29:43;42.22;;;20.45;;
75687;SDS011;64300;45.034;38.910;2023-04-12T02:32:09;46.20;;;21.15;;
75687;SDS011;64300;45.034;38.910;2023-04-12T02:34:35;44.25;;;21.23;;
75687;SDS011;64300;45.034;38.910;2023-04-12T02:37:28;50.03;;;20.45;;
75687;SDS011;64300;45.034;38.910;2023-04-12T02:39:54;46.83;;;20.67;;
75687;SDS011;64300;45.034;38.910;2023-04-12T02:42:22;44.25;;;19.38;;
75687;SDS011;64300;45.034;38.910;2023-04-12T02:44:48;41.55;;;19.83;;
75687;SDS011;64300;45.034;38.910;2023-04-12T02:47:14;46.70;;;18.88;;
75687;SDS011;64300;45.034;38.910;2023-04-12T02:49:44;41.28;;;18.65;;
75687;SDS011;64300;45.034;38.910;2023-04-12T02:52:12;44.70;;;19.52;;
75687;SDS011;64300;45.034;38.910;2023-04-12T02:54:48;42.53;;;19.25;;
75687;SDS011;64300;45.034;38.910;2023-04-12T02:57:15;50.63;;;19.70;;
75687;SDS011;64300;45.034;38.910;2023-04-12T02:59:44;41.67;;;19.85;;
75687;SDS011;64300;45.034;38.910;2023-04-12T03:02:32;43.92;;;19.38;;
75687;SDS011;64300;45.034;38.910;2023-04-12T03:05:02;40.80;;;19.23;;
75687;SDS011;64300;45.034;38.910;2023-04-12T03:07:41;42.55;;;19.75;;
75687;SDS011;64300;45.034;38.910;2023-04-12T03:10:08;42.20;;;19.33;;
75687;SDS011;64300;45.034;38.910;2023-04-12T03:12:41;40.38;;;19.70;;
75687;SDS011;64300;45.034;38.910;2023-04-12T03:15:17;44.33;;;19.85;;
75687;SDS011;64300;45.034;38.910;2023-04-12T03:17:46;47.83;;;19.17;;
75687;SDS011;64300;45.034;38.910;2023-04-12T03:20:14;43.20;;;20.95;;
75687;SDS011;64300;45.034;38.910;2023-04-12T03:22:47;45.22;;;20.75;;
75687;SDS011;64300;45.034;38.910;2023-04-12T03:25:13;44.20;;;19.98;;
75687;SDS011;64300;45.034;38.910;2023-04-12T03:30:13;43.42;;;19.70;;
75687;SDS011;64300;45.034;38.910;2023-04-12T03:32:41;43.28;;;20.60;;
75687;SDS011;64300;45.034;38.910;2023-04-12T03:35:08;44.15;;;20.73;;
75687;SDS011;64300;45.034;38.910;2023-04-12T03:37:35;44.67;;;21.20;;
75687;SDS011;64300;45.034;38.910;2023-04-12T03:40:02;42.55;;;19.90;;
75687;SDS011;64300;45.034;38.910;2023-04-12T03:42:27;40.97;;;19.00;;
75687;SDS011;64300;45.034;38.910;2023-04-12T03:44:54;42.05;;;19.23;;
75687;SDS011;64300;45.034;38.910;2023-04-12T03:47:20;39.30;;;18.27;;
75687;SDS011;64300;45.034;38.910;2023-04-12T03:49:47;38.40;;;19.15;;
75687;SDS011;64300;45.034;38.910;2023-04-12T03:52:13;36.50;;;17.90;;
75687;SDS011;64300;45.034;38.910;2023-04-12T03:54:41;38.25;;;17.50;;
75687;SDS011;64300;45.034;38.910;2023-04-12T03:57:11;43.65;;;18.55;;
75687;SDS011;64300;45.034;38.910;2023-04-12T03:59:41;38.35;;;18.08;;
75687;SDS011;64300;45.034;38.910;2023-04-12T04:02:07;35.33;;;18.63;;
75687;SDS011;64300;45.034;38.910;2023-04-12T04:04:38;36.60;;;17.88;;
75687;SDS011;64300;45.034;38.910;2023-04-12T04:07:08;35.78;;;18.98;;
75687;SDS011;64300;45.034;38.910;2023-04-12T04:09:39;36.40;;;18.27;;
75687;SDS011;64300;45.034;38.910;2023-04-12T04:12:06;36.65;;;18.00;;
75687;SDS011;64300;45.034;38.910;2023-04-12T04:14:34;34.47;;;17.67;;
75687;SDS011;64300;45.034;38.910;2023-04-12T04:17:03;35.38;;;17.77;;
75687;SDS011;64300;45.034;38.910;2023-04-12T04:19:32;34.70;;;16.70;;
75687;SDS011;64300;45.034;38.910;2023-04-12T04:21:58;41.17;;;17.98;;
75687;SDS011;64300;45.034;38.910;2023-04-12T04:24:26;34.28;;;17.00;;
75687;SDS011;64300;45.034;38.910;2023-04-12T04:26:56;34.58;;;17.63;;
75687;SDS011;64300;45.034;38.910;2023-04-12T04:29:25;38.33;;;17.77;;
75687;SDS011;64300;45.034;38.910;2023-04-12T04:31:53;33.60;;;17.83;;
75687;SDS011;64300;45.034;38.910;2023-04-12T04:34:20;41.00;;;19.75;;
75687;SDS011;64300;45.034;38.910;2023-04-12T04:36:48;39.80;;;18.85;;
75687;SDS011;64300;45.034;38.910;2023-04-12T04:39:21;36.25;;;17.95;;
75687;SDS011;64300;45.034;38.910;2023-04-12T04:41:47;37.00;;;19.05;;
75687;SDS011;64300;45.034;38.910;2023-04-12T04:44:38;38.20;;;18.20;;
75687;SDS011;64300;45.034;38.910;2023-04-12T04:47:07;45.17;;;20.25;;
75687;SDS011;64300;45.034;38.910;2023-04-12T04:49:33;40.45;;;19.13;;
75687;SDS011;64300;45.034;38.910;2023-04-12T04:52:05;42.03;;;19.48;;
75687;SDS011;64300;45.034;38.910;2023-04-12T04:54:33;40.70;;;19.45;;
75687;SDS011;64300;45.034;38.910;2023-04-12T04:56:59;42.45;;;19.58;;
75687;SDS011;64300;45.034;38.910;2023-04-12T04:59:26;42.55;;;18.42;;
75687;SDS011;64300;45.034;38.910;2023-04-12T05:01:57;40.83;;;20.52;;
75687;SDS011;64300;45.034;38.910;2023-04-12T05:04:23;36.58;;;19.48;;
75687;SDS011;64300;45.034;38.910;2023-04-12T05:06:49;39.78;;;18.73;;
75687;SDS011;64300;45.034;38.910;2023-04-12T05:09:18;42.50;;;19.85;;
75687;SDS011;64300;45.034;38.910;2023-04-12T05:11:49;42.65;;;19.88;;
75687;SDS011;64300;45.034;38.910;2023-04-12T05:14:15;38.35;;;19.50;;
75687;SDS011;64300;45.034;38.910;2023-04-12T05:16:41;43.45;;;18.65;;
75687;SDS011;64300;45.034;38.910;2023-04-12T05:19:06;36.92;;;17.95;;
75687;SDS011;64300;45.034;38.910;2023-04-12T05:21:33;36.75;;;18.50;;
75687;SDS011;64300;45.034;38.910;2023-04-12T05:23:59;35.88;;;17.70;;
75687;SDS011;64300;45.034;38.910;2023-04-12T05:26:25;45.92;;;18.52;;
75687;SDS011;64300;45.034;38.910;2023-04-12T05:28:52;38.30;;;17.52;;
75687;SDS011;64300;45.034;38.910;2023-04-12T05:31:19;38.85;;;18.42;;
75687;SDS011;64300;45.034;38.910;2023-04-12T05:33:45;33.78;;;16.48;;
75687;SDS011;64300;45.034;38.910;2023-04-12T05:36:12;37.50;;;16.17;;
75687;SDS011;64300;45.034;38.910;2023-04-12T05:38:39;28.17;;;15.43;;
75687;SDS011;64300;45.034;38.910;2023-04-12T05:41:10;28.65;;;15.40;;
75687;SDS011;64300;45.034;38.910;2023-04-12T05:43:36;27.70;;;13.50;;
75687;SDS011;64300;45.034;38.910;2023-04-12T05:46:15;24.77;;;12.43;;
75687;SDS011;64300;45.034;38.910;2023-04-12T05:48:43;23.05;;;11.40;;
75687;SDS011;64300;45.034;38.910;2023-04-12T05:51:09;19.83;;;10.65;;
75687;SDS011;64300;45.034;38.910;2023-04-12T05:53:35;21.75;;;11.98;;
75687;SDS011;64300;45.034;38.910;2023-04-12T05:56:03;22.33;;;10.80;;
75687;SDS011;64300;45.034;38.910;2023-04-12T05:58:29;19.45;;;11.05;;
75687;SDS011;64300;45.034;38.910;2023-04-12T06:00:54;18.92;;;10.45;;
75687;SDS011;64300;45.034;38.910;2023-04-12T06:03:21;17.60;;;9.02;;
75687;SDS011;64300;45.034;38.910;2023-04-12T06:05:49;19.38;;;9.73;;
75687;SDS011;64300;45.034;38.910;2023-04-12T06:08:17;16.45;;;8.77;;
75687;SDS011;64300;45.034;38.910;2023-04-12T06:10:42;18.67;;;9.63;;
75687;SDS011;64300;45.034;38.910;2023-04-12T06:13:08;19.98;;;9.55;;
75687;SDS011;64300;45.034;38.910;2023-04-12T06:15:34;17.25;;;9.48;;
75687;SDS011;64300;45.034;38.910;2023-04-12T06:18:01;20.48;;;10.32;;
75687;SDS011;64300;45.034;38.910;2023-04-12T06:20:27;19.42;;;10.38;;
75687;SDS011;64300;45.034;38.910;2023-04-12T06:22:53;18.25;;;10.07;;
75687;SDS011;64300;45.034;38.910;2023-04-12T06:25:20;17.63;;;9.45;;
75687;SDS011;64300;45.034;38.910;2023-04-12T06:27:47;15.57;;;9.43;;
75687;SDS011;64300;45.034;38.910;2023-04-12T06:30:15;15.35;;;8.20;;
75687;SDS011;64300;45.034;38.910;2023-04-12T06:32:41;12.07;;;6.60;;
75687;SDS011;64300;45.034;38.910;2023-04-12T06:35:07;16.45;;;6.95;;
75687;SDS011;64300;45.034;38.910;2023-04-12T06:37:32;12.93;;;7.03;;
75687;SDS011;64300;45.034;38.910;2023-04-12T06:39:58;12.57;;;6.68;;
75687;SDS011;64300;45.034;38.910;2023-04-12T06:42:24;13.55;;;6.47;;
75687;SDS011;64300;45.034;38.910;2023-04-12T06:44:49;15.23;;;7.78;;
75687;SDS011;64300;45.034;38.910;2023-04-12T06:47:15;17.30;;;7.75;;
75687;SDS011;64300;45.034;38.910;2023-04-12T06:49:49;20.75;;;7.85;;
75687;SDS011;64300;45.034;38.910;2023-04-12T06:52:17;13.05;;;6.47;;
75687;SDS011;64300;45.034;38.910;2023-04-12T06:54:43;12.45;;;6.15;;
75687;SDS011;64300;45.034;38.910;2023-04-12T06:57:10;15.75;;;7.18;;
75687;SDS011;64300;45.034;38.910;2023-04-12T06:59:35;14.77;;;7.90;;
75687;SDS011;64300;45.034;38.910;2023-04-12T07:02:01;15.02;;;8.02;;
75687;SDS011;64300;45.034;38.910;2023-04-12T07:04:27;19.20;;;9.35;;
75687;SDS011;64300;45.034;38.910;2023-04-12T07:06:52;17.02;;;9.00;;
75687;SDS011;64300;45.034;38.910;2023-04-12T07:09:18;17.08;;;8.50;;
75687;SDS011;64300;45.034;38.910;2023-04-12T07:11:43;18.20;;;9.75;;
75687;SDS011;64300;45.034;38.910;2023-04-12T07:14:09;18.33;;;9.35;;
75687;SDS011;64300;45.034;38.910;2023-04-12T07:16:34;18.55;;;9.70;;
75687;SDS011;64300;45.034;38.910;2023-04-12T07:19:00;22.08;;;10.18;;
75687;SDS011;64300;45.034;38.910;2023-04-12T07:21:26;16.20;;;9.68;;
75687;SDS011;64300;45.034;38.910;2023-04-12T07:23:52;19.58;;;10.38;;
75687;SDS011;64300;45.034;38.910;2023-04-12T07:26:20;18.38;;;9.52;;
75687;SDS011;64300;45.034;38.910;2023-04-12T07:28:46;18.75;;;9.75;;
75687;SDS011;64300;45.034;38.910;2023-04-12T07:31:11;17.00;;;9.18;;
75687;SDS011;64300;45.034;38.910;2023-04-12T07:33:37;18.75;;;9.40;;
75687;SDS011;64300;45.034;38.910;2023-04-12T07:36:03;16.48;;;9.05;;
75687;SDS011;64300;45.034;38.910;2023-04-12T07:38:29;16.42;;;8.98;;
75687;SDS011;64300;45.034;38.910;2023-04-12T07:40:55;17.98;;;10.15;;
75687;SDS011;64300;45.034;38.910;2023-04-12T07:43:20;15.43;;;8.23;;
75687;SDS011;64300;45.034;38.910;2023-04-12T07:45:46;18.85;;;7.68;;
75687;SDS011;64300;45.034;38.910;2023-04-12T07:48:12;12.60;;;6.53;;
75687;SDS011;64300;45.034;38.910;2023-04-12T07:50:38;12.98;;;6.45;;
75687;SDS011;64300;45.034;38.910;2023-04-12T07:53:17;10.00;;;5.75;;
75687;SDS011;64300;45.034;38.910;2023-04-12T07:55:44;11.65;;;5.57;;
75687;SDS011;64300;45.034;38.910;2023-04-12T07:58:09;13.48;;;5.20;;
75687;SDS011;64300;45.034;38.910;2023-04-12T08:00:35;11.68;;;4.93;;
75687;SDS011;64300;45.034;38.910;2023-04-12T08:03:01;9.60;;;4.97;;
75687;SDS011;64300;45.034;38.910;2023-04-12T08:05:26;13.15;;;5.43;;
75687;SDS011;64300;45.034;38.910;2023-04-12T08:07:52;11.10;;;6.10;;
75687;SDS011;64300;45.034;38.910;2023-04-12T08:10:18;12.07;;;7.18;;
75687;SDS011;64300;45.034;38.910;2023-04-12T08:12:43;17.40;;;8.30;;
75687;SDS011;64300;45.034;38.910;2023-04-12T08:15:09;17.60;;;10.88;;
75687;SDS011;64300;45.034;38.910;2023-04-12T08:17:35;24.17;;;10.98;;
75687;SDS011;64300;45.034;38.910;2023-04-12T08:20:00;22.98;;;13.15;;
75687;SDS011;64300;45.034;38.910;2023-04-12T08:22:28;27.95;;;14.38;;
75687;SDS011;64300;45.034;38.910;2023-04-12T08:24:53;28.30;;;15.07;;
75687;SDS011;64300;45.034;38.910;2023-04-12T08:27:19;27.77;;;14.38;;
75687;SDS011;64300;45.034;38.910;2023-04-12T08:29:44;30.90;;;15.38;;
75687;SDS011;64300;45.034;38.910;2023-04-12T08:32:10;33.63;;;15.45;;
75687;SDS011;64300;45.034;38.910;2023-04-12T08:34:37;31.40;;;15.80;;
75687;SDS011;64300;45.034;38.910;2023-04-12T08:37:03;31.85;;;15.43;;
75687;SDS011;64300;45.034;38.910;2023-04-12T08:39:30;32.78;;;16.30;;
75687;SDS011;64300;45.034;38.910;2023-04-12T08:41:55;33.42;;;16.60;;
75687;SDS011;64300;45.034;38.910;2023-04-12T08:44:54;30.45;;;16.33;;
75687;SDS011;64300;45.034;38.910;2023-04-12T08:47:15;30.45;;;15.13;;
75687;SDS011;64300;45.034;38.910;2023-04-12T08:49:41;34.72;;;16.40;;
75687;SDS011;64300;45.034;38.910;2023-04-12T08:52:07;35.08;;;17.02;;
75687;SDS011;64300;45.034;38.910;2023-04-12T08:54:32;34.38;;;16.90;;
75687;SDS011;64300;45.034;38.910;2023-04-12T08:57:00;37.78;;;16.73;;
75687;SDS011;64300;45.034;38.910;2023-04-12T08:59:29;35.15;;;15.40;;
75687;SDS011;64300;45.034;38.910;2023-04-12T09:01:56;34.47;;;17.25;;
75687;SDS011;64300;45.034;38.910;2023-04-12T09:04:22;33.83;;;16.88;;
75687;SDS011;64300;45.034;38.910;2023-04-12T09:06:59;31.17;;;16.38;;
75687;SDS011;64300;45.034;38.910;2023-04-12T09:10:00;32.97;;;17.23;;
75687;SDS011;64300;45.034;38.910;2023-04-12T09:15:59;39.55;;;18.00;;
75687;SDS011;64300;45.034;38.910;2023-04-12T09:18:28;36.72;;;16.80;;
75687;SDS011;64300;45.034;38.910;2023-04-12T09:21:06;32.40;;;16.67;;
75687;SDS011;64300;45.034;38.910;2023-04-12T09:23:32;32.33;;;16.30;;
75687;SDS011;64300;45.034;38.910;2023-04-12T09:26:00;36.58;;;16.95;;
75687;SDS011;64300;45.034;38.910;2023-04-12T09:28:27;33.10;;;16.73;;
75687;SDS011;64300;45.034;38.910;2023-04-12T09:30:53;30.80;;;15.07;;
75687;SDS011;64300;45.034;38.910;2023-04-12T09:33:20;33.22;;;16.13;;
75687;SDS011;64300;45.034;38.910;2023-04-12T09:35:46;34.15;;;15.63;;
75687;SDS011;64300;45.034;38.910;2023-04-12T09:38:12;29.35;;;14.65;;
75687;SDS011;64300;45.034;38.910;2023-04-12T09:40:38;31.73;;;15.20;;
75687;SDS011;64300;45.034;38.910;2023-04-12T09:43:03;26.23;;;14.02;;
75687;SDS011;64300;45.034;38.910;2023-04-12T09:45:29;28.77;;;14.00;;
75687;SDS011;64300;45.034;38.910;2023-04-12T09:47:56;28.80;;;13.50;;
75687;SDS011;64300;45.034;38.910;2023-04-12T09:50:28;23.23;;;12.82;;
75687;SDS011;64300;45.034;38.910;2023-04-12T09:52:58;27.10;;;13.45;;
75687;SDS011;64300;45.034;38.910;2023-04-12T09:55:25;26.10;;;13.98;;
75687;SDS011;64300;45.034;38.910;2023-04-12T09:57:54;27.88;;;13.82;;
75687;SDS011;64300;45.034;38.910;2023-04-12T10:00:23;23.17;;;12.75;;
75687;SDS011;64300;45.034;38.910;2023-04-12T10:02:51;23.88;;;12.68;;
75687;SDS011;64300;45.034;38.910;2023-04-12T10:05:21;21.95;;;11.40;;
75687;SDS011;64300;45.034;38.910;2023-04-12T10:07:47;22.42;;;11.98;;
75687;SDS011;64300;45.034;38.910;2023-04-12T10:10:14;20.77;;;11.75;;
75687;SDS011;64300;45.034;38.910;2023-04-12T10:12:41;24.35;;;12.25;;
75687;SDS011;64300;45.034;38.910;2023-04-12T10:15:08;24.42;;;12.10;;
75687;SDS011;64300;45.034;38.910;2023-04-12T10:17:47;24.20;;;12.93;;
75687;SDS011;64300;45.034;38.910;2023-04-12T10:20:13;25.58;;;12.88;;
75687;SDS011;64300;45.034;38.910;2023-04-12T10:22:49;23.25;;;13.40;;
75687;SDS011;64300;45.034;38.910;2023-04-12T10:25:16;24.83;;;12.40;;
75687;SDS011;64300;45.034;38.910;2023-04-12T10:27:42;28.00;;;13.55;;
75687;SDS011;64300;45.034;38.910;2023-04-12T10:30:22;26.95;;;13.05;;
75687;SDS011;64300;45.034;38.910;2023-04-12T10:35:48;26.48;;;12.52;;
75687;SDS011;64300;45.034;38.910;2023-04-12T10:38:14;27.80;;;12.98;;
75687;SDS011;64300;45.034;38.910;2023-04-12T10:43:24;27.98;;;13.77;;
75687;SDS011;64300;45.034;38.910;2023-04-12T10:45:54;28.05;;;13.30;;
75687;SDS011;64300;45.034;38.910;2023-04-12T10:53:42;25.77;;;13.25;;
75687;SDS011;64300;45.034;38.910;2023-04-12T10:58:59;31.88;;;14.13;;
75687;SDS011;64300;45.034;38.910;2023-04-12T11:01:28;28.75;;;13.70;;
75687;SDS011;64300;45.034;38.910;2023-04-12T11:06:52;27.08;;;13.18;;
75687;SDS011;64300;45.034;38.910;2023-04-12T11:09:41;33.40;;;13.63;;
75687;SDS011;64300;45.034;38.910;2023-04-12T11:14:35;27.02;;;12.82;;
75687;SDS011;64300;45.034;38.910;2023-04-12T11:19:30;27.42;;;12.57;;
75687;SDS011;64300;45.034;38.910;2023-04-12T11:21:56;26.35;;;12.82;;
75687;SDS011;64300;45.034;38.910;2023-04-12T11:24:22;28.08;;;13.98;;
75687;SDS011;64300;45.034;38.910;2023-04-12T11:26:47;26.63;;;13.50;;
75687;SDS011;64300;45.034;38.910;2023-04-12T11:29:13;29.67;;;13.57;;
75687;SDS011;64300;45.034;38.910;2023-04-12T11:31:41;26.98;;;13.55;;
75687;SDS011;64300;45.034;38.910;2023-04-12T11:34:07;32.08;;;14.02;;
75687;SDS011;64300;45.034;38.910;2023-04-12T11:36:36;26.48;;;14.23;;
75687;SDS011;64300;45.034;38.910;2023-04-12T11:39:03;30.85;;;14.30;;
75687;SDS011;64300;45.034;38.910;2023-04-12T11:41:31;30.13;;;14.35;;
75687;SDS011;64300;45.034;38.910;2023-04-12T11:43:57;36.10;;;15.80;;
75687;SDS011;64300;45.034;38.910;2023-04-12T11:46:22;34.40;;;15.10;;
75687;SDS011;64300;45.034;38.910;2023-04-12T11:48:49;33.38;;;15.45;;
75687;SDS011;64300;45.034;38.910;2023-04-12T11:51:21;28.42;;;13.73;;
75687;SDS011;64300;45.034;38.910;2023-04-12T11:53:52;28.77;;;13.50;;
75687;SDS011;64300;45.034;38.910;2023-04-12T11:56:18;28.60;;;14.02;;
75687;SDS011;64300;45.034;38.910;2023-04-12T11:58:46;30.02;;;14.35;;
75687;SDS011;64300;45.034;38.910;2023-04-12T12:01:15;29.17;;;13.80;;
75687;SDS011;64300;45.034;38.910;2023-04-12T12:03:41;25.40;;;12.90;;
75687;SDS011;64300;45.034;38.910;2023-04-12T12:06:07;30.00;;;14.48;;
75687;SDS011;64300;45.034;38.910;2023-04-12T12:08:34;24.55;;;13.07;;
75687;SDS011;64300;45.034;38.910;2023-04-12T12:10:59;31.67;;;14.32;;
75687;SDS011;64300;45.034;38.910;2023-04-12T12:13:25;27.25;;;14.20;;
75687;SDS011;64300;45.034;38.910;2023-04-12T12:15:51;30.20;;;14.35;;
75687;SDS011;64300;45.034;38.910;2023-04-12T12:18:16;30.20;;;14.30;;
75687;SDS011;64300;45.034;38.910;2023-04-12T12:20:48;29.73;;;13.80;;
75687;SDS011;64300;45.034;38.910;2023-04-12T12:23:30;26.60;;;13.20;;
75687;SDS011;64300;45.034;38.910;2023-04-12T12:25:56;29.05;;;12.48;;
75687;SDS011;64300;45.034;38.910;2023-04-12T12:28:22;25.00;;;12.70;;
75687;SDS011;64300;45.034;38.910;2023-04-12T12:30:51;26.60;;;13.10;;
75687;SDS011;64300;45.034;38.910;2023-04-12T12:33:23;27.73;;;13.88;;
75687;SDS011;64300;45.034;38.910;2023-04-12T12:35:55;27.27;;;13.20;;
75687;SDS011;64300;45.034;38.910;2023-04-12T12:38:21;25.63;;;13.15;;
75687;SDS011;64300;45.034;38.910;2023-04-12T12:40:55;27.15;;;13.15;;
75687;SDS011;64300;45.034;38.910;2023-04-12T12:43:22;27.80;;;13.48;;
75687;SDS011;64300;45.034;38.910;2023-04-12T12:45:47;34.60;;;14.82;;
75687;SDS011;64300;45.034;38.910;2023-04-12T12:48:14;25.83;;;12.85;;
75687;SDS011;64300;45.034;38.910;2023-04-12T12:50:40;30.33;;;13.95;;
75687;SDS011;64300;45.034;38.910;2023-04-12T12:53:08;26.50;;;13.13;;
75687;SDS011;64300;45.034;38.910;2023-04-12T12:55:40;27.13;;;12.90;;
75687;SDS011;64300;45.034;38.910;2023-04-12T12:58:05;24.63;;;13.30;;
75687;SDS011;64300;45.034;38.910;2023-04-12T13:00:31;26.35;;;12.90;;
75687;SDS011;64300;45.034;38.910;2023-04-12T13:02:57;26.48;;;12.45;;
75687;SDS011;64300;45.034;38.910;2023-04-12T13:05:23;23.20;;;12.13;;
75687;SDS011;64300;45.034;38.910;2023-04-12T13:07:49;28.75;;;12.75;;
75687;SDS011;64300;45.034;38.910;2023-04-12T13:10:16;25.63;;;11.93;;
75687;SDS011;64300;45.034;38.910;2023-04-12T13:12:42;25.55;;;12.75;;
75687;SDS011;64300;45.034;38.910;2023-04-12T13:15:11;26.23;;;12.75;;
75687;SDS011;64300;45.034;38.910;2023-04-12T13:17:38;32.60;;;12.98;;
75687;SDS011;64300;45.034;38.910;2023-04-12T13:20:04;22.98;;;12.13;;
75687;SDS011;64300;45.034;38.910;2023-04-12T13:22:29;24.05;;;12.50;;
75687;SDS011;64300;45.034;38.910;2023-04-12T13:24:56;24.65;;;12.15;;
75687;SDS011;64300;45.034;38.910;2023-04-12T13:27:22;24.85;;;11.70;;
75687;SDS011;64300;45.034;38.910;2023-04-12T13:29:47;20.83;;;11.52;;
75687;SDS011;64300;45.034;38.910;2023-04-12T13:32:13;21.95;;;11.05;;
75687;SDS011;64300;45.034;38.910;2023-04-12T13:34:39;20.17;;;10.82;;
75687;SDS011;64300;45.034;38.910;2023-04-12T13:37:05;18.77;;;9.73;;
75687;SDS011;64300;45.034;38.910;2023-04-12T13:39:31;18.98;;;9.95;;
75687;SDS011;64300;45.034;38.910;2023-04-12T13:41:58;19.08;;;8.48;;
75687;SDS011;64300;45.034;38.910;2023-04-12T13:44:24;17.88;;;8.63;;
75687;SDS011;64300;45.034;38.910;2023-04-12T13:46:52;13.90;;;8.73;;
75687;SDS011;64300;45.034;38.910;2023-04-12T13:49:17;13.65;;;7.18;;
75687;SDS011;64300;45.034;38.910;2023-04-12T13:51:44;15.23;;;7.45;;
75687;SDS011;64300;45.034;38.910;2023-04-12T13:54:12;12.77;;;7.35;;
75687;SDS011;64300;45.034;38.910;2023-04-12T13:56:39;11.40;;;5.88;;
75687;SDS011;64300;45.034;38.910;2023-04-12T13:59:05;15.98;;;6.18;;
75687;SDS011;64300;45.034;38.910;2023-04-12T14:01:31;12.00;;;6.20;;
75687;SDS011;64300;45.034;38.910;2023-04-12T14:03:57;10.80;;;6.07;;
75687;SDS011;64300;45.034;38.910;2023-04-12T14:06:23;13.02;;;5.63;;
75687;SDS011;64300;45.034;38.910;2023-04-12T14:08:49;9.35;;;5.07;;
75687;SDS011;64300;45.034;38.910;2023-04-12T14:11:15;10.15;;;5.32;;
75687;SDS011;64300;45.034;38.910;2023-04-12T14:13:41;11.63;;;5.32;;
75687;SDS011;64300;45.034;38.910;2023-04-12T14:16:07;9.07;;;4.82;;
75687;SDS011;64300;45.034;38.910;2023-04-12T14:18:33;10.30;;;4.93;;
75687;SDS011;64300;45.034;38.910;2023-04-12T14:20:59;11.05;;;5.65;;
75687;SDS011;64300;45.034;38.910;2023-04-12T14:23:33;11.57;;;5.70;;
75687;SDS011;64300;45.034;38.910;2023-04-12T14:25:58;10.07;;;5.97;;
75687;SDS011;64300;45.034;38.910;2023-04-12T14:28:24;11.63;;;6.10;;
75687;SDS011;64300;45.034;38.910;2023-04-12T14:30:57;14.70;;;6.30;;
75687;SDS011;64300;45.034;38.910;2023-04-12T14:33:24;14.10;;;7.03;;
75687;SDS011;64300;45.034;38.910;2023-04-12T14:35:50;11.85;;;5.53;;
75687;SDS011;64300;45.034;38.910;2023-04-12T14:38:17;11.00;;;5.95;;
75687;SDS011;64300;45.034;38.910;2023-04-12T14:40:43;13.32;;;5.90;;
75687;SDS011;64300;45.034;38.910;2023-04-12T14:43:09;12.43;;;5.90;;
75687;SDS011;64300;45.034;38.910;2023-04-12T14:45:37;14.55;;;6.07;;
75687;SDS011;64300;45.034;38.910;2023-04-12T14:48:03;11.93;;;5.22;;
75687;SDS011;64300;45.034;38.910;2023-04-12T14:50:29;16.95;;;6.03;;
75687;SDS011;64300;45.034;38.910;2023-04-12T14:52:55;10.48;;;5.57;;
75687;SDS011;64300;45.034;38.910;2023-04-12T14:55:21;11.80;;;5.75;;